createdAt,value
2022-11-26T00:01:00.764Z,34.43
2022-11-26T00:03:29.213Z,36.57
2022-11-26T00:05:59.380Z,35.23
2022-11-26T00:08:34.287Z,35.00
2022-11-26T00:11:04.155Z,34.43
2022-11-26T00:13:33.192Z,37.20
2022-11-26T00:16:01.544Z,29.30
2022-11-26T00:18:29.901Z,36.40
2022-11-26T00:21:01.957Z,34.13
2022-11-26T00:23:30.842Z,34.77
2022-11-26T00:26:02.823Z,35.37
2022-11-26T00:28:35.302Z,38.37
2022-11-26T00:31:07.902Z,27.20
2022-11-26T00:33:36.255Z,27.17
2022-11-26T00:36:16.601Z,34.87
2022-11-26T00:38:45.639Z,27.00
2022-11-26T00:41:19.339Z,29.00
2022-11-26T00:43:49.516Z,40.70
2022-11-26T00:46:20.647Z,26.80
2022-11-26T00:48:49.574Z,36.90
2022-11-26T00:51:24.141Z,27.10
2022-11-26T00:53:57.476Z,35.53
2022-11-26T00:56:26.058Z,34.90
2022-11-26T00:58:55.872Z,29.83
2022-11-26T01:01:28.711Z,32.53
2022-11-26T01:03:59.466Z,28.57
2022-11-26T01:06:32.935Z,28.83
2022-11-26T01:09:02.066Z,31.63
2022-11-26T01:11:31.939Z,30.37
2022-11-26T01:14:02.028Z,31.93
2022-11-26T01:16:32.907Z,28.43
2022-11-26T01:19:03.037Z,41.93
2022-11-26T01:21:33.377Z,30.37
2022-11-26T01:24:01.880Z,26.57
2022-11-26T01:26:36.144Z,31.90
2022-11-26T01:29:06.015Z,32.57
2022-11-26T01:31:35.150Z,32.93
2022-11-26T01:34:03.630Z,32.57
2022-11-26T01:36:36.063Z,27.13
2022-11-26T01:39:08.541Z,29.87
2022-11-26T01:41:46.844Z,25.13
2022-11-26T01:44:22.677Z,35.10
2022-11-26T01:46:52.932Z,31.90
2022-11-26T01:49:24.688Z,31.27
2022-11-26T01:52:04.552Z,23.17
2022-11-26T01:54:37.911Z,26.00
2022-11-26T01:57:14.670Z,20.87
2022-11-26T01:59:50.938Z,26.23
2022-11-26T02:02:20.843Z,26.73
2022-11-26T02:05:08.726Z,25.60
2022-11-26T02:07:37.693Z,30.43
2022-11-26T02:10:07.738Z,33.93
2022-11-26T02:12:36.919Z,25.97
2022-11-26T02:15:08.547Z,36.17
2022-11-26T02:17:42.769Z,37.00
2022-11-26T02:20:46.430Z,38.40
2022-11-26T02:23:49.955Z,29.47
2022-11-26T02:27:01.477Z,30.73
2022-11-26T02:30:03.373Z,32.10
2022-11-26T02:32:44.022Z,28.20
2022-11-26T02:35:23.694Z,48.23
2022-11-26T02:37:57.715Z,27.47
2022-11-26T02:40:28.106Z,34.57
2022-11-26T02:42:56.928Z,28.63
2022-11-26T02:45:32.282Z,23.33
2022-11-26T02:48:05.945Z,28.83
2022-11-26T02:50:39.583Z,24.10
2022-11-26T02:53:10.781Z,22.70
2022-11-26T02:55:46.074Z,18.80
2022-11-26T02:58:15.672Z,25.67
2022-11-26T03:00:49.503Z,25.97
2022-11-26T03:03:26.140Z,29.17
2022-11-26T03:05:59.276Z,24.20
2022-11-26T03:08:29.875Z,20.77
2022-11-26T03:10:58.197Z,21.80
2022-11-26T03:13:26.934Z,27.60
2022-11-26T03:15:56.833Z,31.60
2022-11-26T03:18:25.520Z,24.50
2022-11-26T03:20:54.152Z,22.83
2022-11-26T03:23:23.004Z,21.70
2022-11-26T03:25:51.492Z,30.63
2022-11-26T03:28:19.854Z,28.20
2022-11-26T03:30:51.330Z,26.83
2022-11-26T03:33:21.424Z,28.97
2022-11-26T03:35:50.383Z,25.27
2022-11-26T03:38:19.135Z,33.03
2022-11-26T03:40:56.128Z,29.47
2022-11-26T03:43:24.503Z,39.93
2022-11-26T03:45:53.792Z,31.07
2022-11-26T03:48:23.513Z,37.27
2022-11-26T03:50:51.959Z,43.57
2022-11-26T03:53:20.312Z,36.37
2022-11-26T03:55:49.443Z,36.30
2022-11-26T03:58:17.946Z,40.63
2022-11-26T04:00:46.326Z,36.47
2022-11-26T04:03:15.038Z,34.67
2022-11-26T04:05:44.872Z,46.27
2022-11-26T04:08:13.651Z,32.80
2022-11-26T04:10:42.225Z,36.20
2022-11-26T04:13:10.787Z,30.70
2022-11-26T04:15:39.136Z,47.93
2022-11-26T04:18:07.808Z,61.87
2022-11-26T04:20:36.442Z,73.57
2022-11-26T04:23:06.268Z,83.57
2022-11-26T04:25:34.662Z,62.07
2022-11-26T04:28:03.109Z,27.40
2022-11-26T04:30:31.547Z,40.93
2022-11-26T04:32:59.925Z,46.90
2022-11-26T04:35:28.393Z,58.93
2022-11-26T04:37:56.768Z,81.33
2022-11-26T04:40:26.654Z,47.33
2022-11-26T04:42:55.250Z,134.33
2022-11-26T04:45:23.751Z,163.93
2022-11-26T04:47:52.250Z,43.57
2022-11-26T04:50:21.440Z,64.00
2022-11-26T04:52:50.770Z,39.37
2022-11-26T04:55:19.989Z,173.57
2022-11-26T04:57:50.828Z,73.13
2022-11-26T05:00:20.900Z,61.23
2022-11-26T05:02:49.351Z,71.30
2022-11-26T05:05:17.904Z,70.43
2022-11-26T05:07:46.502Z,40.43
2022-11-26T05:10:15.007Z,45.87
2022-11-26T05:12:43.321Z,134.17
2022-11-26T05:15:13.215Z,95.97
2022-11-26T05:17:41.598Z,43.10
2022-11-26T05:20:11.670Z,69.17
2022-11-26T05:22:39.966Z,66.13
2022-11-26T05:25:09.137Z,91.47
2022-11-26T05:27:37.576Z,64.20
2022-11-26T05:30:07.844Z,61.57
2022-11-26T05:32:37.450Z,46.03
2022-11-26T05:35:06.727Z,29.17
2022-11-26T05:37:35.073Z,58.20
2022-11-26T05:40:03.552Z,48.03
2022-11-26T05:42:31.843Z,47.00
2022-11-26T05:45:00.121Z,47.67
2022-11-26T05:47:28.506Z,73.20
2022-11-26T05:49:58.460Z,33.90
2022-11-26T05:52:27.183Z,48.60
2022-11-26T05:54:55.477Z,56.30
2022-11-26T05:57:23.805Z,31.90
2022-11-26T05:59:52.267Z,63.80
2022-11-26T06:02:20.689Z,27.00
2022-11-26T06:04:49.116Z,32.43
2022-11-26T06:07:18.890Z,41.63
2022-11-26T06:09:47.204Z,25.17
2022-11-26T06:12:15.529Z,45.73
2022-11-26T06:14:43.982Z,28.70
2022-11-26T06:17:12.328Z,52.63
2022-11-26T06:19:40.981Z,27.03
2022-11-26T06:22:09.423Z,34.20
2022-11-26T06:24:39.629Z,43.33
2022-11-26T06:27:08.403Z,33.77
2022-11-26T06:29:36.974Z,40.57
2022-11-26T06:32:05.925Z,30.63
2022-11-26T06:34:34.372Z,27.03
2022-11-26T06:37:02.706Z,22.93
2022-11-26T06:39:31.173Z,44.70
2022-11-26T06:42:00.772Z,27.40
2022-11-26T06:44:29.030Z,26.77
2022-11-26T06:46:57.278Z,33.87
2022-11-26T06:49:25.612Z,34.33
2022-11-26T06:51:54.735Z,32.20
2022-11-26T06:54:23.375Z,29.70
2022-11-26T06:56:51.640Z,29.17
2022-11-26T06:59:22.233Z,25.90
2022-11-26T07:01:50.631Z,28.87
2022-11-26T07:04:18.947Z,31.00
2022-11-26T07:06:47.470Z,28.90
2022-11-26T07:09:15.808Z,40.13
2022-11-26T07:11:44.240Z,31.53
2022-11-26T07:14:12.490Z,27.93
2022-11-26T07:16:42.133Z,37.10
2022-11-26T07:19:15.330Z,39.03
2022-11-26T07:21:43.709Z,32.10
2022-11-26T07:24:12.040Z,40.23
2022-11-26T07:26:40.309Z,36.47
2022-11-26T07:29:08.732Z,33.43
2022-11-26T07:31:37.106Z,56.60
2022-11-26T07:34:06.971Z,26.83
2022-11-26T07:36:35.407Z,39.57
2022-11-26T07:39:04.438Z,49.57
2022-11-26T07:41:32.799Z,39.60
2022-11-26T07:44:01.015Z,42.07
2022-11-26T07:46:29.449Z,46.63
2022-11-26T07:48:58.470Z,48.77
2022-11-26T07:51:30.947Z,40.37
2022-11-26T07:54:04.211Z,41.80
2022-11-26T07:56:32.727Z,56.17
2022-11-26T07:59:01.633Z,45.33
2022-11-26T08:01:32.140Z,38.47
2022-11-26T08:04:01.779Z,68.37
2022-11-26T08:06:31.689Z,37.90
2022-11-26T08:09:02.206Z,48.60
2022-11-26T08:11:33.286Z,36.57
2022-11-26T08:14:03.761Z,38.47
2022-11-26T08:16:32.778Z,37.63
2022-11-26T08:19:04.785Z,36.30
2022-11-26T08:21:35.523Z,40.53
2022-11-26T08:24:04.902Z,33.23
2022-11-26T08:26:38.438Z,33.53
2022-11-26T08:29:11.160Z,36.10
2022-11-26T08:31:45.125Z,33.27
2022-11-26T08:34:16.242Z,37.13
2022-11-26T08:36:47.270Z,45.27
2022-11-26T08:39:17.217Z,33.30
2022-11-26T08:41:51.644Z,36.77
2022-11-26T08:44:21.038Z,41.47
2022-11-26T08:46:50.230Z,42.77
2022-11-26T08:49:18.819Z,36.70
2022-11-26T08:51:48.531Z,40.50
2022-11-26T08:54:16.849Z,45.93
2022-11-26T08:56:45.103Z,37.47
2022-11-26T08:59:13.383Z,37.57
2022-11-26T09:01:41.997Z,36.80
2022-11-26T09:04:10.281Z,47.00
2022-11-26T09:06:40.748Z,41.63
2022-11-26T09:09:13.704Z,46.23
2022-11-26T09:11:46.076Z,44.40
2022-11-26T09:14:16.007Z,46.87
2022-11-26T09:16:44.749Z,48.07
2022-11-26T09:19:15.206Z,45.73
2022-11-26T09:21:44.167Z,53.87
2022-11-26T09:24:14.196Z,46.50
2022-11-26T09:26:42.856Z,47.40
2022-11-26T09:29:15.197Z,39.70
2022-11-26T09:32:07.373Z,42.43
2022-11-26T09:34:32.920Z,41.40
2022-11-26T09:37:01.218Z,42.57
2022-11-26T09:39:30.943Z,42.20
2022-11-26T09:42:07.519Z,39.33
2022-11-26T09:45:04.072Z,37.87
2022-11-26T09:47:41.409Z,35.40
2022-11-26T09:50:26.610Z,45.17
2022-11-26T09:53:01.253Z,36.97
2022-11-26T09:55:34.444Z,40.90
2022-11-26T09:58:13.299Z,38.40
2022-11-26T10:00:44.905Z,31.77
2022-11-26T10:03:17.071Z,33.17
2022-11-26T10:05:53.436Z,37.67
2022-11-26T10:09:03.977Z,30.87
2022-11-26T10:11:45.538Z,29.23
2022-11-26T10:14:40.652Z,27.73
2022-11-26T10:17:26.028Z,32.27
2022-11-26T10:20:25.188Z,34.30
2022-11-26T10:23:01.761Z,31.40
2022-11-26T10:25:37.476Z,28.40
2022-11-26T10:28:21.562Z,26.57
2022-11-26T10:30:58.708Z,41.80
2022-11-26T10:33:33.332Z,41.10
2022-11-26T10:36:01.867Z,42.77
2022-11-26T10:38:30.114Z,33.73
2022-11-26T10:40:58.432Z,35.63
2022-11-26T10:43:28.544Z,33.03
2022-11-26T10:45:58.390Z,34.70
2022-11-26T10:48:29.717Z,36.73
2022-11-26T10:51:07.207Z,38.50
2022-11-26T10:53:55.555Z,39.97
2022-11-26T10:56:37.124Z,37.63
2022-11-26T10:59:20.848Z,35.43
2022-11-26T11:01:51.700Z,31.70
2022-11-26T11:04:31.625Z,34.73
2022-11-26T11:07:00.283Z,31.43
2022-11-26T11:09:35.941Z,35.10
2022-11-26T11:12:25.127Z,29.23
2022-11-26T11:14:55.069Z,29.97
2022-11-26T11:17:33.110Z,36.63
2022-11-26T11:20:26.742Z,34.10
2022-11-26T11:23:31.108Z,32.60
2022-11-26T11:26:16.778Z,38.03
2022-11-26T11:28:51.021Z,31.83
2022-11-26T11:31:23.549Z,30.77
2022-11-26T11:34:12.067Z,33.13
2022-11-26T11:36:40.966Z,37.33
2022-11-26T11:39:29.823Z,40.67
2022-11-26T11:42:01.467Z,36.70
2022-11-26T11:44:43.788Z,37.43
2022-11-26T11:47:35.765Z,39.50
2022-11-26T11:50:22.639Z,41.67
2022-11-26T11:53:24.125Z,47.00
2022-11-26T11:56:17.025Z,38.67
2022-11-26T11:59:10.553Z,47.20
2022-11-26T12:02:03.652Z,39.53
2022-11-26T12:05:06.965Z,45.60
2022-11-26T12:07:43.306Z,45.60
2022-11-26T12:10:19.152Z,48.67
2022-11-26T12:12:52.436Z,47.27
2022-11-26T12:15:29.426Z,52.63
2022-11-26T12:18:09.824Z,53.23
2022-11-26T12:20:45.273Z,51.40
2022-11-26T12:23:28.412Z,50.97
2022-11-26T12:26:07.054Z,50.10
2022-11-26T12:28:44.740Z,52.57
2022-11-26T12:31:24.619Z,51.20
2022-11-26T12:34:06.989Z,50.37
2022-11-26T12:36:49.209Z,54.47
2022-11-26T12:39:30.457Z,56.83
2022-11-26T12:42:05.417Z,48.83
2022-11-26T12:44:39.439Z,48.33
2022-11-26T12:47:21.545Z,52.80
2022-11-26T12:50:12.872Z,48.17
2022-11-26T12:52:51.679Z,55.27
2022-11-26T12:55:26.281Z,46.33
2022-11-26T12:58:02.182Z,45.50
2022-11-26T13:00:36.605Z,49.80
2022-11-26T13:03:08.072Z,52.13
2022-11-26T13:05:51.599Z,47.63
2022-11-26T13:08:44.246Z,50.00
2022-11-26T13:11:29.742Z,50.50
2022-11-26T13:14:09.599Z,45.20
2022-11-26T13:16:43.264Z,52.20
2022-11-26T13:19:21.555Z,53.97
2022-11-26T13:22:33.256Z,55.53
2022-11-26T13:25:38.783Z,48.73
2022-11-26T13:28:28.359Z,52.60
2022-11-26T13:31:21.270Z,53.77
2022-11-26T13:34:23.464Z,56.90
2022-11-26T13:37:25.272Z,55.90
2022-11-26T13:40:44.779Z,53.63
2022-11-26T13:44:07.499Z,51.50
2022-11-26T13:46:40.432Z,57.37
2022-11-26T13:49:16.148Z,49.57
2022-11-26T13:51:49.709Z,51.10
2022-11-26T13:54:28.291Z,52.60
2022-11-26T13:57:06.472Z,52.17
2022-11-26T13:59:36.751Z,48.53
2022-11-26T14:02:44.426Z,59.40
2022-11-26T14:05:16.733Z,52.40
2022-11-26T14:07:47.274Z,52.90
2022-11-26T14:10:44.341Z,56.97
2022-11-26T14:13:16.243Z,57.70
2022-11-26T14:16:03.723Z,56.60
2022-11-26T14:19:01.192Z,62.37
2022-11-26T14:21:31.588Z,52.43
2022-11-26T14:24:03.293Z,60.23
2022-11-26T14:26:37.344Z,61.17
2022-11-26T14:29:17.434Z,53.57
2022-11-26T14:31:53.065Z,57.63
2022-11-26T14:34:30.435Z,57.47
2022-11-26T14:37:01.419Z,59.83
2022-11-26T14:39:31.797Z,63.63
2022-11-26T14:42:06.110Z,63.03
2022-11-26T14:44:36.797Z,57.97
2022-11-26T14:47:17.318Z,68.90
2022-11-26T14:49:50.855Z,68.83
2022-11-26T14:52:27.224Z,62.33
2022-11-26T14:54:59.903Z,60.67
2022-11-26T14:57:41.728Z,56.33
2022-11-26T15:00:25.069Z,66.13
2022-11-26T15:02:54.316Z,65.43
2022-11-26T15:05:25.936Z,64.20
2022-11-26T15:08:03.769Z,56.13
2022-11-26T15:10:35.735Z,55.77
2022-11-26T15:13:13.534Z,51.93
2022-11-26T15:15:53.807Z,57.50
2022-11-26T15:18:29.453Z,62.80
2022-11-26T15:21:00.118Z,60.43
2022-11-26T15:23:36.690Z,54.13
2022-11-26T15:26:06.760Z,60.97
2022-11-26T15:28:40.961Z,73.80
2022-11-26T15:31:11.974Z,65.87
2022-11-26T15:33:41.798Z,64.47
2022-11-26T15:36:17.423Z,69.53
2022-11-26T15:39:06.437Z,71.63
2022-11-26T15:41:42.488Z,69.90
2022-11-26T15:44:23.320Z,71.47
2022-11-26T15:46:56.555Z,64.97
2022-11-26T15:49:29.919Z,68.23
2022-11-26T15:52:03.499Z,72.60
2022-11-26T15:54:56.804Z,79.90
2022-11-26T15:57:30.804Z,80.23
2022-11-26T16:00:05.772Z,65.03
2022-11-26T16:02:35.791Z,80.40
2022-11-26T16:05:05.691Z,88.10
2022-11-26T16:07:35.020Z,81.73
2022-11-26T16:10:26.682Z,81.40
2022-11-26T16:13:20.044Z,78.37
2022-11-26T16:15:55.345Z,80.83
2022-11-26T16:18:34.682Z,81.80
2022-11-26T16:21:07.900Z,79.37
2022-11-26T16:23:36.360Z,84.67
2022-11-26T16:26:16.002Z,93.13
2022-11-26T16:28:45.829Z,90.63
2022-11-26T16:31:15.155Z,91.93
2022-11-26T16:33:45.420Z,94.20
2022-11-26T16:36:21.679Z,93.43
2022-11-26T16:38:51.144Z,97.40
2022-11-26T16:41:22.693Z,85.43
2022-11-26T16:43:51.570Z,102.80
2022-11-26T16:46:24.018Z,93.03
2022-11-26T16:48:53.987Z,96.03
2022-11-26T16:51:23.612Z,87.10
2022-11-26T16:53:52.032Z,91.40
2022-11-26T16:56:25.172Z,101.00
2022-11-26T16:58:54.178Z,90.60
2022-11-26T17:01:22.567Z,90.67
2022-11-26T17:03:50.991Z,89.97
2022-11-26T17:06:26.988Z,93.63
2022-11-26T17:08:57.709Z,95.00
2022-11-26T17:11:26.240Z,97.10
2022-11-26T17:13:55.231Z,101.33
2022-11-26T17:16:26.000Z,94.47
2022-11-26T17:18:54.446Z,93.20
2022-11-26T17:21:24.072Z,101.37
2022-11-26T17:23:52.319Z,93.03
2022-11-26T17:26:24.238Z,104.57
2022-11-26T17:28:52.760Z,97.20
2022-11-26T17:31:21.176Z,100.23
2022-11-26T17:33:50.594Z,96.23
2022-11-26T17:36:22.022Z,96.73
2022-11-26T17:38:52.001Z,99.90
2022-11-26T17:41:20.665Z,109.50
2022-11-26T17:43:49.144Z,96.10
2022-11-26T17:46:22.772Z,102.33
2022-11-26T17:48:56.885Z,89.17
2022-11-26T17:51:27.891Z,99.77
2022-11-26T17:53:57.492Z,100.57
2022-11-26T17:56:26.818Z,100.03
2022-11-26T17:58:55.905Z,104.03
2022-11-26T18:01:24.260Z,95.67
2022-11-26T18:03:52.997Z,99.93
2022-11-26T18:06:35.400Z,114.83
2022-11-26T18:09:05.376Z,102.07
2022-11-26T18:11:47.114Z,112.07
2022-11-26T18:14:15.368Z,112.60
2022-11-26T18:16:44.397Z,94.00
2022-11-26T18:19:15.595Z,113.07
2022-11-26T18:21:44.734Z,100.83
2022-11-26T18:24:15.134Z,107.80
2022-11-26T18:26:44.450Z,103.20
2022-11-26T18:29:13.235Z,99.10
2022-11-26T18:31:41.500Z,109.40
2022-11-26T18:34:11.116Z,106.43
2022-11-26T18:36:39.322Z,100.10
2022-11-26T18:39:08.022Z,100.13
2022-11-26T18:41:37.646Z,94.77
2022-11-26T18:44:05.888Z,106.83
2022-11-26T18:46:34.384Z,105.33
2022-11-26T18:49:03.228Z,99.40
2022-11-26T18:51:31.430Z,94.43
2022-11-26T18:53:59.653Z,118.33
2022-11-26T18:56:28.045Z,112.43
2022-11-26T18:58:57.697Z,100.77
2022-11-26T19:01:28.359Z,93.73
2022-11-26T19:03:58.743Z,103.90
2022-11-26T19:06:29.736Z,83.27
2022-11-26T19:09:00.277Z,103.23
2022-11-26T19:11:29.529Z,94.90
2022-11-26T19:14:00.128Z,87.00
2022-11-26T19:16:29.042Z,93.03
2022-11-26T19:18:57.390Z,97.60
2022-11-26T19:21:28.776Z,96.77
2022-11-26T19:24:00.605Z,106.33
2022-11-26T19:26:29.775Z,96.40
2022-11-26T19:29:04.827Z,85.63
2022-11-26T19:31:35.888Z,85.97
2022-11-26T19:34:07.508Z,88.73
2022-11-26T19:36:37.280Z,92.10
2022-11-26T19:39:07.806Z,88.30
2022-11-26T19:41:36.171Z,85.90
2022-11-26T19:44:06.887Z,83.70
2022-11-26T19:46:40.453Z,79.37
2022-11-26T19:49:12.827Z,86.47
2022-11-26T19:51:41.789Z,77.93
2022-11-26T19:54:10.559Z,79.63
2022-11-26T19:56:39.280Z,75.17
2022-11-26T19:59:08.924Z,67.33
2022-11-26T20:01:37.247Z,72.97
2022-11-26T20:04:08.164Z,76.20
2022-11-26T20:06:37.879Z,79.77
2022-11-26T20:09:08.745Z,77.03
2022-11-26T20:11:39.939Z,80.57
2022-11-26T20:14:10.692Z,83.40
2022-11-26T20:16:41.374Z,85.27
2022-11-26T20:19:11.392Z,75.00
2022-11-26T20:21:40.118Z,82.97
2022-11-26T20:24:13.114Z,82.80
2022-11-26T20:26:44.046Z,84.30
2022-11-26T20:29:16.929Z,79.37
2022-11-26T20:31:47.565Z,79.03
2022-11-26T20:34:17.154Z,78.60
2022-11-26T20:36:45.874Z,93.97
2022-11-26T20:39:15.918Z,81.40
2022-11-26T20:41:44.687Z,89.53
2022-11-26T20:44:14.910Z,99.07
2022-11-26T20:46:43.511Z,98.23
2022-11-26T20:49:12.156Z,99.73
2022-11-26T20:51:40.842Z,106.23
2022-11-26T20:54:09.045Z,89.00
2022-11-26T20:56:38.451Z,89.23
2022-11-26T20:59:09.561Z,92.07
2022-11-26T21:01:40.139Z,105.80
2022-11-26T21:04:08.728Z,101.93
2022-11-26T21:06:37.392Z,95.10
2022-11-26T21:09:07.329Z,103.23
2022-11-26T21:11:36.382Z,95.20
2022-11-26T21:14:08.481Z,94.33
2022-11-26T21:16:40.388Z,98.63
2022-11-26T21:19:11.777Z,95.43
2022-11-26T21:21:40.235Z,92.87
2022-11-26T21:24:09.578Z,96.57
2022-11-26T21:26:37.910Z,90.73
2022-11-26T21:29:06.172Z,90.67
2022-11-26T21:31:34.536Z,94.50
2022-11-26T21:34:07.527Z,94.47
2022-11-26T21:36:37.669Z,94.27
2022-11-26T21:39:07.050Z,94.93
2022-11-26T21:41:35.484Z,95.57
2022-11-26T21:44:05.236Z,98.00
2022-11-26T21:46:38.496Z,98.90
2022-11-26T21:49:09.033Z,81.40
2022-11-26T21:51:37.399Z,94.00
2022-11-26T21:54:06.293Z,97.53
2022-11-26T21:56:34.732Z,99.33
2022-11-26T21:59:03.352Z,86.67
2022-11-26T22:01:33.686Z,100.47
2022-11-26T22:04:07.100Z,85.47
2022-11-26T22:06:37.281Z,84.67
2022-11-26T22:09:07.031Z,82.53
2022-11-26T22:11:37.770Z,85.27
2022-11-26T22:14:07.558Z,73.27
2022-11-26T22:16:35.921Z,78.53
2022-11-26T22:19:04.357Z,82.53
2022-11-26T22:21:38.362Z,74.27
2022-11-26T22:24:10.794Z,85.23
2022-11-26T22:26:39.448Z,74.07
2022-11-26T22:29:08.001Z,75.53
2022-11-26T22:31:39.011Z,70.70
2022-11-26T22:34:09.498Z,70.57
2022-11-26T22:36:40.143Z,73.97
2022-11-26T22:39:13.512Z,67.70
2022-11-26T22:41:43.760Z,74.97
2022-11-26T22:44:13.268Z,69.20
2022-11-26T22:46:41.596Z,69.60
2022-11-26T22:49:13.855Z,63.60
2022-11-26T22:51:43.678Z,60.20
2022-11-26T22:54:15.456Z,57.03
2022-11-26T22:56:43.813Z,53.20
2022-11-26T22:59:14.663Z,54.23
2022-11-26T23:01:43.165Z,51.53
2022-11-26T23:04:13.049Z,47.20
2022-11-26T23:06:43.460Z,52.00
2022-11-26T23:09:14.440Z,46.43
2022-11-26T23:11:44.126Z,42.93
2022-11-26T23:14:13.725Z,45.43
2022-11-26T23:16:44.854Z,54.27
2022-11-26T23:19:15.898Z,42.00
2022-11-26T23:21:46.893Z,46.83
2022-11-26T23:24:16.811Z,39.80
2022-11-26T23:26:46.241Z,34.60
2022-11-26T23:29:15.322Z,42.70
2022-11-26T23:31:45.404Z,34.67
2022-11-26T23:34:14.773Z,43.33
2022-11-26T23:36:44.967Z,42.43
2022-11-26T23:39:14.471Z,33.87
2022-11-26T23:41:43.597Z,38.97
2022-11-26T23:44:12.148Z,36.30
2022-11-26T23:46:40.720Z,47.60
2022-11-26T23:49:09.181Z,35.37
2022-11-26T23:51:37.520Z,36.53
2022-11-26T23:54:07.366Z,37.37
2022-11-26T23:56:36.518Z,37.20
2022-11-26T23:59:08.418Z,34.30
